Latest Coastal Weather Observations for Willis Island

IDQ60701

Issued at 10:12 am EST Wednesday 18 October 2017 (issued every 10 minutes, with the page automatically refreshed every 10 minutes)

About coastal observations | Map of coastal stations | Coastal observations for QLD | Marine services | Other Formats
Station Details ID: 200283 Name: WILLIS ISLAND Lat: -16.29 Lon: 149.97 Height: 9.29 m
Data from the previous 72 hours. | See also: Recent months at Willis Island
Date/Time
EST
Temp
°C
Wind Pressure Rain since
9am
mm
Weather Cloud Vis
km
Sea
Height
m
Swell
Dir  Spd
kts
Gust
kts
hPa Trend Height
m
Period
s
Dir
18/10:00am 23.7 E 24 27 1011.2 - 5.8 - - - - - - -
18/09:30am 23.5 E 24 29 1011.9 - 4.0 - - - - - - -
18/09:00am 25.3 E 22 26 1011.7 R 12.4 Thunderstorm Cloudy 2 3 2.5 8 E
18/08:30am 25.4 ENE 24 28 1011.1 - 10.4 - - - - - - -
18/08:00am 25.3 ENE 25 30 1010.1 - 8.4 - - - - - - -
18/07:30am 25.1 ENE 28 32 1009.2 - 6.8 - - - - - - -
18/07:00am 25.0 ENE 29 35 1009.0 - 5.0 - - - - - - -
18/06:30am 25.3 ENE 28 33 1008.5 - 3.4 - - - - - - -
18/06:00am 25.4 ENE 29 34 1007.5 R 2.4 Thunderstorm Cloudy 4 3 2.5 8 E
18/05:30am 25.8 ENE 30 35 1007.2 - 2.0 - - - - - - -
18/05:00am 25.8 ENE 28 36 1006.4 - 2.0 - - - - - - -
18/04:30am 25.9 ENE 29 36 1006.0 - 2.0 - - - - - - -
18/04:00am 26.0 ENE 28 33 1006.1 - 2.0 - - - - - - -
18/03:30am 26.0 ENE 30 36 1005.5 - 2.0 - - - - - - -
18/03:00am 25.8 ENE 30 35 1005.7 F 2.0 - - - - - - -
18/02:30am 26.0 ENE 29 33 1006.4 - 2.0 - - - - - - -
18/02:00am 25.8 ENE 28 32 1007.1 - 2.0 - - - - - - -
18/01:30am 25.5 ENE 28 34 1007.2 - 2.0 - - - - - - -
18/01:00am 25.5 ENE 24 30 1008.3 - 2.0 - - - - - - -
18/12:30am 25.5 ENE 25 31 1008.7 - 2.0 - - - - - - -
18/12:00am 25.6 ENE 24 28 1009.4 R 2.0 - - - - - - -
 
Date/Time
EST
Temp
°C
Wind Pressure Rain since
9am
mm
Weather Cloud Vis
km
Sea
Height
m
Swell
Dir  Spd
kts
Gust
kts
hPa Trend Height
m
Period
s
Dir
17/11:30pm 25.6 ENE 25 28 1009.6 - 2.0 - - - - - - -
17/11:00pm 25.6 ENE 25 29 1009.7 - 2.0 - - - - - - -
17/10:30pm 25.7 ENE 23 27 1009.8 - 2.0 - - - - - - -
17/10:00pm 25.6 ENE 26 30 1009.6 - 2.0 - - - - - - -
17/09:30pm 25.6 ENE 26 31 1009.9 - 2.0 - - - - - - -
17/09:00pm 25.5 ENE 25 30 1009.6 F 2.0 Distant precip. Mostly cloudy 12 2 2.0 8 E
17/08:30pm 25.5 ENE 24 28 1009.5 - 2.0 - - - - - - -
17/08:00pm 25.5 ENE 23 26 1009.2 - 2.0 - - - - - - -
17/07:30pm 25.3 ENE 23 26 1008.9 - 2.0 - - - - - - -
17/07:00pm 25.0 ENE 22 26 1008.9 - 2.0 - - - - - - -
17/06:30pm 24.8 ENE 21 24 1008.9 - 2.0 - - - - - - -
17/06:00pm 24.9 ENE 20 22 1009.0 R 2.0 Distant precip. Cloudy 15 2 1.4 8 E
17/05:30pm 24.6 ENE 23 25 1008.2 - 2.0 - - - - - - -
17/05:00pm 24.8 ENE 23 26 1007.7 - 2.0 - - - - - - -
17/04:30pm 25.1 ENE 18 21 1007.9 - 2.0 - - - - - - -
17/04:00pm 24.6 ENE 18 21 1007.9 - 2.0 - - - - - - -
17/03:30pm 24.5 ENE 22 25 1007.8 - 2.0 - - - - - - -
17/03:00pm 25.4 E 17 19 1007.9 F 2.0 Rain Cloudy 20 1 1.2 8 E
17/02:39pm 25.1 ESE 20 26 1008.3 - 2.0 - - - - - - -
17/02:30pm 25.9 ESE 19 22 1008.3 - 2.0 - - - - - - -
17/02:00pm 26.2 ESE 17 20 1008.3 - 2.0 - - - - - - -
17/01:30pm 25.7 ESE 14 16 1009.0 - 2.0 - - - - - - -
17/01:00pm 25.7 SE 11 13 1009.1 - 2.0 - - - - - - -
17/12:30pm 25.4 SSE 10 11 1009.0 - 2.0 - - - - - - -
17/12:00pm 25.4 SSE 11 13 1009.7 F 2.0 Rain Cloudy 15 1 1.0 8 E
17/11:30am 25.2 SE 13 15 1009.7 - 1.8 - - - - - - -
17/11:00am 25.0 SSE 13 15 1010.3 - 1.2 - - - - - - -
17/10:30am 25.1 SE 15 18 1010.8 - 0.8 - - - - - - -
17/10:00am 25.4 SE 15 18 1010.7 - 0.0 - - - - - - -
17/09:30am 25.5 SE 13 15 1011.5 - 0.0 - - - - - - -
17/09:00am 25.6 SE 13 15 1011.5 R 0.0 Rain Cloudy 12 1 1.0 8 E
17/08:30am 25.9 SE 11 13 1011.8 - 0.0 - - - - - - -
17/08:00am 25.7 SE 13 15 1011.0 - 0.0 - - - - - - -
17/07:30am 25.7 SE 15 17 1010.3 - 0.0 - - - - - - -
17/07:00am 25.6 SE 16 18 1010.0 - 0.0 - - - - - - -
17/06:30am 25.5 SE 17 20 1009.6 - 0.0 - - - - - - -
17/06:00am 25.5 SE 16 18 1009.0 R 0.0 Rain Cloudy 12 1 1.4 8 E
17/05:30am 25.6 SE 16 19 1008.7 - 0.0 - - - - - - -
17/05:00am 25.6 SE 16 19 1007.8 - 0.0 - - - - - - -
17/04:30am 25.7 SSE 15 17 1007.8 - 0.0 - - - - - - -
17/04:00am 25.7 SE 14 15 1007.8 - 0.0 - - - - - - -
17/03:30am 25.7 SE 13 15 1007.9 - 0.0 - - - - - - -
17/03:00am 25.8 SE 13 15 1007.7 F 0.0 - - - - - - -
17/02:30am 25.8 SE 12 13 1007.9 - 0.0 - - - - - - -
17/02:00am 25.9 SE 11 12 1008.3 - 0.0 - - - - - - -
17/01:30am 25.9 SE 11 13 1008.8 - 0.0 - - - - - - -
17/01:00am 25.9 ESE 12 14 1009.4 - 0.0 - - - - - - -
17/12:30am 26.1 SE 12 13 1009.9 - 0.0 - - - - - - -
17/12:00am 26.1 ESE 11 13 1010.4 R 0.0 - - - - - - -
 
Date/Time
EST
Temp
°C
Wind Pressure Rain since
9am
mm
Weather Cloud Vis
km
Sea
Height
m
Swell
Dir  Spd
kts
Gust
kts
hPa Trend Height
m
Period
s
Dir
16/11:30pm 26.1 ESE 11 13 1010.7 - 0.0 - - - - - - -
16/11:00pm 26.1 ESE 12 14 1010.8 - 0.0 - - - - - - -
16/10:30pm 26.2 ESE 11 13 1010.9 - 0.0 - - - - - - -
16/10:00pm 26.1 ESE 13 14 1010.7 - 0.0 - - - - - - -
16/09:30pm 26.1 ESE 13 16 1010.7 - 0.0 - - - - - - -
16/09:00pm 26.2 ESE 13 15 1010.4 R 0.0 Showers Mostly cloudy 10 1 1.3 8 E
16/08:30pm 26.0 ESE 13 15 1010.0 - 0.0 - - - - - - -
16/08:00pm 26.1 ESE 13 15 1009.7 - 0.0 - - - - - - -
16/07:30pm 26.2 ESE 13 15 1009.6 - 0.0 - - - - - - -
16/07:00pm 26.2 ESE 12 14 1009.4 - 0.0 - - - - - - -
16/06:30pm 26.2 ESE 12 14 1009.2 - 0.0 - - - - - - -
16/06:00pm 26.2 E 11 12 1008.6 R 0.0 Haze Mostly cloudy 12 1 1.3 8 E
16/05:30pm 26.4 E 12 14 1008.0 - 0.0 - - - - - - -
16/05:00pm 26.6 E 11 13 1007.8 - 0.0 - - - - - - -
16/04:30pm 27.0 E 12 14 1007.7 - 0.0 - - - - - - -
16/04:00pm 27.2 ESE 11 14 1007.8 - 0.0 - - - - - - -
16/03:30pm 27.5 ESE 12 14 1007.7 - 0.0 - - - - - - -
16/03:00pm 28.0 ESE 13 15 1007.5 F 0.0 Haze Mostly cloudy 12 1 1.2 8 E
16/02:30pm 28.4 ESE 12 14 1007.8 - 0.0 - - - - - - -
16/02:00pm 28.8 E 12 14 1008.1 - 0.0 - - - - - - -
16/01:30pm 29.3 E 13 16 1008.2 - 0.0 - - - - - - -
16/01:00pm 28.9 E 13 15 1008.3 - 0.0 - - - - - - -
16/12:30pm 29.2 ESE 14 15 1008.6 - 0.0 - - - - - - -
16/12:00pm 28.2 E 14 16 1009.3 F 0.0 Haze Mostly cloudy 12 1 1.3 8 E
16/11:30am 27.8 E 14 16 1009.7 - 0.0 - - - - - - -
16/11:00am 28.2 E 14 16 1009.9 - 0.0 - - - - - - -
16/10:30am 27.8 E 13 16 1010.2 - 0.0 - - - - - - -
16/10:00am 29.4 E 13 14 1010.6 - 0.0 - - - - - - -
16/09:30am 28.0 ESE 12 15 1010.6 - 0.0 - - - - - - -
16/09:00am 27.9 SE 12 13 1011.0 F 0.0 Haze Mostly cloudy 10 1 1.3 8 E
16/08:30am 27.4 SE 12 13 1011.4 - - - - - - - - -
16/08:00am 27.5 SE 12 15 1011.1 - - - - - - - - -
16/07:30am 27.0 SE 13 15 1010.8 - - - - - - - - -
16/07:00am 26.7 SE 12 14 1010.5 - - - - - - - - -
16/06:30am 26.3 SE 12 14 1010.1 - - - - - - - - -
16/06:00am 25.7 ESE 12 14 1009.8 R - Haze Mostly cloudy 8 1 1.3 8 E
16/05:30am 25.8 SE 12 14 1009.5 - - - - - - - - -
16/05:00am 25.7 SE 12 14 1009.1 - - - - - - - - -
16/04:30am 25.8 ESE 12 15 1008.7 - - - - - - - - -
16/04:00am 25.6 ESE 13 15 1008.3 - - - - - - - - -
16/03:30am 25.7 ESE 13 15 1008.0 - - - - - - - - -
16/03:00am 25.6 ESE 14 16 1008.0 R 0.0 - - - - - - -
16/02:30am 25.6 ESE 14 15 1008.2 - - - - - - - - -
16/02:00am 25.6 ESE 15 17 1008.4 - - - - - - - - -
16/01:30am 25.7 ESE 14 16 1008.7 - - - - - - - - -
16/01:00am 25.6 ESE 14 17 1008.6 - - - - - - - - -
16/12:30am 25.8 ESE 15 17 1008.8 - - - - - - - - -
16/12:00am 25.7 ESE 16 18 1008.9 R - - - - - - - -
 
Date/Time
EST
Temp
°C
Wind Pressure Rain since
9am
mm
Weather Cloud Vis
km
Sea
Height
m
Swell
Dir  Spd
kts
Gust
kts
hPa Trend Height
m
Period
s
Dir
15/11:30pm 25.8 ESE 16 18 1009.1 - - - - - - - - -
15/11:00pm 25.8 SE 15 17 1009.3 - - - - - - - - -
15/10:30pm 25.8 ESE 15 17 1009.4 - - - - - - - - -
15/10:00pm 25.8 SE 15 17 1009.5 - - - - - - - - -
15/09:30pm 25.9 SE 15 16 1009.6 - - - - - - - - -
15/09:00pm 25.9 SE 14 16 1009.3 R 0.0 - - - - - - -
15/08:30pm 25.9 SE 16 18 1009.0 - - - - - - - - -
15/08:00pm 26.0 SE 15 17 1008.7 - - - - - - - - -
15/07:30pm 26.0 SE 15 17 1008.5 - - - - - - - - -
15/07:00pm 26.0 ESE 14 17 1008.3 - - - - - - - - -
15/06:30pm 26.1 SE 14 16 1007.7 - - - - - - - - -
15/06:00pm 26.2 SE 13 15 1007.6 F - Haze Mostly clear 8 1 1.4 8 SE
15/05:30pm 26.6 SE 13 16 1007.4 - - - - - - - - -
15/05:00pm 27.0 SE 14 16 1007.1 - - - - - - - - -
15/04:30pm 27.5 SE 13 15 1006.9 - - - - - - - - -
15/04:00pm 27.8 SE 13 15 1007.0 - - - - - - - - -
15/03:30pm 28.6 SE 12 14 1007.1 - - - - - - - - -
15/03:00pm 28.9 SE 11 13 1007.2 S 0.0 Haze Mostly clear 10 1 1.2 8 E
15/02:30pm 29.0 SE 10 13 1007.4 - - - - - - - - -
15/02:00pm 29.3 SE 11 12 1007.6 - - - - - - - - -
15/01:30pm 28.9 ESE 9 11 1007.8 - - - - - - - - -
15/01:00pm 29.5 ESE 9 11 1008.2 - - - - - - - - -
15/12:30pm 29.0 ESE 9 11 1008.6 - - - - - - - - -
15/12:00pm 29.5 ESE 9 11 1008.9 R - Haze Partly cloudy 6 1 1.4 8 E

Other Formats:

Comma delimited format used in spreadsheet applications
http://www.bom.gov.au/fwo/IDQ60701/IDQ60701.94299.axf

JavaScript Object Notation format (JSON) in row-major order
http://www.bom.gov.au/fwo/IDQ60701/IDQ60701.94299.json